sensor_id;sensor_type;location;lat;lon;timestamp;temperature;humidity
32660;DHT22;19064;47.912;12.308;2023-03-19T00:01:25;7.30;99.90
32660;DHT22;19064;47.912;12.308;2023-03-19T00:03:53;7.30;99.90
32660;DHT22;19064;47.912;12.308;2023-03-19T00:06:20;7.30;99.90
32660;DHT22;19064;47.912;12.308;2023-03-19T00:08:47;7.40;99.90
32660;DHT22;19064;47.912;12.308;2023-03-19T00:11:14;7.20;99.90
32660;DHT22;19064;47.912;12.308;2023-03-19T00:13:42;7.20;99.90
32660;DHT22;19064;47.912;12.308;2023-03-19T00:16:08;7.20;99.90
32660;DHT22;19064;47.912;12.308;2023-03-19T00:18:35;7.10;99.90
32660;DHT22;19064;47.912;12.308;2023-03-19T00:21:03;7.10;99.90
32660;DHT22;19064;47.912;12.308;2023-03-19T00:23:30;6.90;99.90
32660;DHT22;19064;47.912;12.308;2023-03-19T00:25:56;6.90;99.90
32660;DHT22;19064;47.912;12.308;2023-03-19T00:28:23;6.80;99.90
32660;DHT22;19064;47.912;12.308;2023-03-19T00:30:52;6.80;99.90
32660;DHT22;19064;47.912;12.308;2023-03-19T00:33:19;6.70;99.90
32660;DHT22;19064;47.912;12.308;2023-03-19T00:35:45;6.60;99.90
32660;DHT22;19064;47.912;12.308;2023-03-19T00:38:12;6.60;99.90
32660;DHT22;19064;47.912;12.308;2023-03-19T00:40:39;6.60;99.90
32660;DHT22;19064;47.912;12.308;2023-03-19T00:43:07;6.60;99.90
32660;DHT22;19064;47.912;12.308;2023-03-19T00:45:33;6.60;99.90
32660;DHT22;19064;47.912;12.308;2023-03-19T00:48:01;6.60;99.90
32660;DHT22;19064;47.912;12.308;2023-03-19T00:50:28;6.60;99.90
32660;DHT22;19064;47.912;12.308;2023-03-19T00:52:55;6.70;99.90
32660;DHT22;19064;47.912;12.308;2023-03-19T00:55:21;6.70;99.90
32660;DHT22;19064;47.912;12.308;2023-03-19T00:57:50;6.80;99.90
32660;DHT22;19064;47.912;12.308;2023-03-19T01:00:17;6.80;99.90
32660;DHT22;19064;47.912;12.308;2023-03-19T01:02:44;6.70;99.90
32660;DHT22;19064;47.912;12.308;2023-03-19T01:05:13;6.80;99.90
32660;DHT22;19064;47.912;12.308;2023-03-19T01:07:40;6.70;99.90
32660;DHT22;19064;47.912;12.308;2023-03-19T01:10:08;6.60;99.90
32660;DHT22;19064;47.912;12.308;2023-03-19T01:12:35;6.60;99.90
32660;DHT22;19064;47.912;12.308;2023-03-19T01:15:03;6.50;99.90
32660;DHT22;19064;47.912;12.308;2023-03-19T01:17:30;6.30;99.90
32660;DHT22;19064;47.912;12.308;2023-03-19T01:19:56;6.40;99.90
32660;DHT22;19064;47.912;12.308;2023-03-19T01:22:24;6.30;99.90
32660;DHT22;19064;47.912;12.308;2023-03-19T01:24:52;6.30;99.90
32660;DHT22;19064;47.912;12.308;2023-03-19T01:27:19;6.10;99.90
32660;DHT22;19064;47.912;12.308;2023-03-19T01:29:46;6.00;99.90
32660;DHT22;19064;47.912;12.308;2023-03-19T01:32:12;6.00;99.90
32660;DHT22;19064;47.912;12.308;2023-03-19T01:34:39;6.00;99.90
32660;DHT22;19064;47.912;12.308;2023-03-19T01:37:06;5.90;99.90
32660;DHT22;19064;47.912;12.308;2023-03-19T01:39:35;5.90;99.90
32660;DHT22;19064;47.912;12.308;2023-03-19T01:42:02;5.90;99.90
32660;DHT22;19064;47.912;12.308;2023-03-19T01:44:30;5.80;99.90
32660;DHT22;19064;47.912;12.308;2023-03-19T01:46:58;5.70;99.90
32660;DHT22;19064;47.912;12.308;2023-03-19T01:49:27;5.60;99.90
32660;DHT22;19064;47.912;12.308;2023-03-19T01:51:54;5.50;99.90
32660;DHT22;19064;47.912;12.308;2023-03-19T01:54:22;5.50;99.90
32660;DHT22;19064;47.912;12.308;2023-03-19T01:56:54;5.50;99.90
32660;DHT22;19064;47.912;12.308;2023-03-19T01:59:26;5.50;99.90
32660;DHT22;19064;47.912;12.308;2023-03-19T02:01:56;5.40;99.90
32660;DHT22;19064;47.912;12.308;2023-03-19T02:04:24;5.40;99.90
32660;DHT22;19064;47.912;12.308;2023-03-19T02:06:54;5.40;99.90
32660;DHT22;19064;47.912;12.308;2023-03-19T02:09:23;5.40;99.90
32660;DHT22;19064;47.912;12.308;2023-03-19T02:11:54;5.40;99.90
32660;DHT22;19064;47.912;12.308;2023-03-19T02:14:23;5.50;99.90
32660;DHT22;19064;47.912;12.308;2023-03-19T02:16:50;5.60;99.90
32660;DHT22;19064;47.912;12.308;2023-03-19T02:19:21;5.60;99.90
32660;DHT22;19064;47.912;12.308;2023-03-19T02:21:54;5.70;99.90
32660;DHT22;19064;47.912;12.308;2023-03-19T02:24:24;5.70;99.90
32660;DHT22;19064;47.912;12.308;2023-03-19T02:26:58;5.80;99.90
32660;DHT22;19064;47.912;12.308;2023-03-19T02:29:25;6.00;99.90
32660;DHT22;19064;47.912;12.308;2023-03-19T02:31:52;6.00;99.90
32660;DHT22;19064;47.912;12.308;2023-03-19T02:34:37;6.00;99.90
32660;DHT22;19064;47.912;12.308;2023-03-19T02:37:09;5.90;99.90
32660;DHT22;19064;47.912;12.308;2023-03-19T02:39:48;5.80;99.90
32660;DHT22;19064;47.912;12.308;2023-03-19T02:42:19;5.80;99.90
32660;DHT22;19064;47.912;12.308;2023-03-19T02:44:49;5.70;99.90
32660;DHT22;19064;47.912;12.308;2023-03-19T02:47:16;5.70;99.90
32660;DHT22;19064;47.912;12.308;2023-03-19T02:49:43;5.70;99.90
32660;DHT22;19064;47.912;12.308;2023-03-19T02:52:11;5.70;99.90
32660;DHT22;19064;47.912;12.308;2023-03-19T02:54:38;5.70;99.90
32660;DHT22;19064;47.912;12.308;2023-03-19T02:57:05;5.70;99.90
32660;DHT22;19064;47.912;12.308;2023-03-19T02:59:33;5.80;99.90
32660;DHT22;19064;47.912;12.308;2023-03-19T03:02:00;5.70;99.90
32660;DHT22;19064;47.912;12.308;2023-03-19T03:04:27;5.70;99.90
32660;DHT22;19064;47.912;12.308;2023-03-19T03:06:54;5.60;99.90
32660;DHT22;19064;47.912;12.308;2023-03-19T03:09:21;5.60;99.90
32660;DHT22;19064;47.912;12.308;2023-03-19T03:11:49;5.60;99.90
32660;DHT22;19064;47.912;12.308;2023-03-19T03:14:17;5.60;99.90
32660;DHT22;19064;47.912;12.308;2023-03-19T03:16:46;5.70;99.90
32660;DHT22;19064;47.912;12.308;2023-03-19T03:19:14;5.70;99.90
32660;DHT22;19064;47.912;12.308;2023-03-19T03:21:42;5.60;99.90
32660;DHT22;19064;47.912;12.308;2023-03-19T03:24:10;5.70;99.90
32660;DHT22;19064;47.912;12.308;2023-03-19T03:26:38;5.70;99.90
32660;DHT22;19064;47.912;12.308;2023-03-19T03:29:08;5.70;99.90
32660;DHT22;19064;47.912;12.308;2023-03-19T03:31:36;5.70;99.90
32660;DHT22;19064;47.912;12.308;2023-03-19T03:34:09;5.80;99.90
32660;DHT22;19064;47.912;12.308;2023-03-19T03:36:37;5.70;99.90
32660;DHT22;19064;47.912;12.308;2023-03-19T03:39:05;5.60;99.90
32660;DHT22;19064;47.912;12.308;2023-03-19T03:41:33;5.60;99.90
32660;DHT22;19064;47.912;12.308;2023-03-19T03:44:01;5.60;99.90
32660;DHT22;19064;47.912;12.308;2023-03-19T03:46:30;5.50;99.90
32660;DHT22;19064;47.912;12.308;2023-03-19T03:48:56;5.50;99.90
32660;DHT22;19064;47.912;12.308;2023-03-19T03:51:25;5.50;99.90
32660;DHT22;19064;47.912;12.308;2023-03-19T03:53:52;5.50;99.90
32660;DHT22;19064;47.912;12.308;2023-03-19T03:56:21;5.50;99.90
32660;DHT22;19064;47.912;12.308;2023-03-19T03:58:49;5.60;99.90
32660;DHT22;19064;47.912;12.308;2023-03-19T04:01:18;5.60;99.90
32660;DHT22;19064;47.912;12.308;2023-03-19T04:03:45;5.60;99.90
32660;DHT22;19064;47.912;12.308;2023-03-19T04:06:14;5.70;99.90
32660;DHT22;19064;47.912;12.308;2023-03-19T04:08:43;5.70;99.90
32660;DHT22;19064;47.912;12.308;2023-03-19T04:11:11;5.80;99.90
32660;DHT22;19064;47.912;12.308;2023-03-19T04:13:38;5.80;99.90
32660;DHT22;19064;47.912;12.308;2023-03-19T04:16:06;5.90;99.90
32660;DHT22;19064;47.912;12.308;2023-03-19T04:18:34;5.90;99.90
32660;DHT22;19064;47.912;12.308;2023-03-19T04:21:01;5.90;99.90
32660;DHT22;19064;47.912;12.308;2023-03-19T04:23:29;5.80;99.90
32660;DHT22;19064;47.912;12.308;2023-03-19T04:25:58;5.70;99.90
32660;DHT22;19064;47.912;12.308;2023-03-19T04:28:26;5.70;99.90
32660;DHT22;19064;47.912;12.308;2023-03-19T04:31:00;5.60;99.90
32660;DHT22;19064;47.912;12.308;2023-03-19T04:33:29;5.60;99.90
32660;DHT22;19064;47.912;12.308;2023-03-19T04:36:05;5.60;99.90
32660;DHT22;19064;47.912;12.308;2023-03-19T04:38:34;5.60;99.90
32660;DHT22;19064;47.912;12.308;2023-03-19T04:41:02;5.60;99.90
32660;DHT22;19064;47.912;12.308;2023-03-19T04:43:29;5.70;99.90
32660;DHT22;19064;47.912;12.308;2023-03-19T04:45:56;5.70;99.90
32660;DHT22;19064;47.912;12.308;2023-03-19T04:48:23;5.70;99.90
32660;DHT22;19064;47.912;12.308;2023-03-19T04:50:51;5.70;99.90
32660;DHT22;19064;47.912;12.308;2023-03-19T04:53:22;5.70;99.90
32660;DHT22;19064;47.912;12.308;2023-03-19T04:55:49;5.70;99.90
32660;DHT22;19064;47.912;12.308;2023-03-19T04:58:17;5.80;99.90
32660;DHT22;19064;47.912;12.308;2023-03-19T05:00:44;5.80;99.90
32660;DHT22;19064;47.912;12.308;2023-03-19T05:03:12;5.90;99.90
32660;DHT22;19064;47.912;12.308;2023-03-19T05:05:39;5.90;99.90
32660;DHT22;19064;47.912;12.308;2023-03-19T05:08:05;6.00;99.90
32660;DHT22;19064;47.912;12.308;2023-03-19T05:10:33;6.00;99.90
32660;DHT22;19064;47.912;12.308;2023-03-19T05:13:00;6.00;99.90
32660;DHT22;19064;47.912;12.308;2023-03-19T05:15:28;6.00;99.90
32660;DHT22;19064;47.912;12.308;2023-03-19T05:17:54;6.00;99.90
32660;DHT22;19064;47.912;12.308;2023-03-19T05:20:21;6.00;99.90
32660;DHT22;19064;47.912;12.308;2023-03-19T05:22:48;6.00;99.90
32660;DHT22;19064;47.912;12.308;2023-03-19T05:25:15;6.10;99.90
32660;DHT22;19064;47.912;12.308;2023-03-19T05:27:41;6.10;99.90
32660;DHT22;19064;47.912;12.308;2023-03-19T05:30:09;6.20;99.90
32660;DHT22;19064;47.912;12.308;2023-03-19T05:32:38;6.30;99.90
32660;DHT22;19064;47.912;12.308;2023-03-19T05:35:05;6.50;99.90
32660;DHT22;19064;47.912;12.308;2023-03-19T05:37:32;6.60;99.90
32660;DHT22;19064;47.912;12.308;2023-03-19T05:39:59;6.80;99.90
32660;DHT22;19064;47.912;12.308;2023-03-19T05:42:25;6.90;99.90
32660;DHT22;19064;47.912;12.308;2023-03-19T05:44:52;7.00;99.90
32660;DHT22;19064;47.912;12.308;2023-03-19T05:47:19;7.20;99.90
32660;DHT22;19064;47.912;12.308;2023-03-19T05:49:47;7.30;99.90
32660;DHT22;19064;47.912;12.308;2023-03-19T05:52:14;7.40;99.90
32660;DHT22;19064;47.912;12.308;2023-03-19T05:54:40;7.50;99.90
32660;DHT22;19064;47.912;12.308;2023-03-19T05:57:07;7.60;99.90
32660;DHT22;19064;47.912;12.308;2023-03-19T05:59:34;7.70;99.90
32660;DHT22;19064;47.912;12.308;2023-03-19T06:02:01;7.80;99.90
32660;DHT22;19064;47.912;12.308;2023-03-19T06:04:28;7.80;99.90
32660;DHT22;19064;47.912;12.308;2023-03-19T06:06:56;7.80;99.90
32660;DHT22;19064;47.912;12.308;2023-03-19T06:09:23;7.90;99.90
32660;DHT22;19064;47.912;12.308;2023-03-19T06:11:49;7.90;99.90
32660;DHT22;19064;47.912;12.308;2023-03-19T06:14:16;8.00;99.90
32660;DHT22;19064;47.912;12.308;2023-03-19T06:16:43;8.00;99.90
32660;DHT22;19064;47.912;12.308;2023-03-19T06:19:10;8.00;99.90
32660;DHT22;19064;47.912;12.308;2023-03-19T06:21:37;8.10;99.90
32660;DHT22;19064;47.912;12.308;2023-03-19T06:24:05;8.10;99.90
32660;DHT22;19064;47.912;12.308;2023-03-19T06:26:32;8.20;99.90
32660;DHT22;19064;47.912;12.308;2023-03-19T06:28:59;8.20;99.90
32660;DHT22;19064;47.912;12.308;2023-03-19T06:31:26;8.10;99.90
32660;DHT22;19064;47.912;12.308;2023-03-19T06:33:53;8.30;99.90
32660;DHT22;19064;47.912;12.308;2023-03-19T06:36:20;8.30;99.90
32660;DHT22;19064;47.912;12.308;2023-03-19T06:38:47;8.30;99.90
32660;DHT22;19064;47.912;12.308;2023-03-19T06:41:15;8.30;99.90
32660;DHT22;19064;47.912;12.308;2023-03-19T06:43:42;8.40;99.90
32660;DHT22;19064;47.912;12.308;2023-03-19T06:46:08;8.30;99.90
32660;DHT22;19064;47.912;12.308;2023-03-19T06:48:35;8.20;99.90
32660;DHT22;19064;47.912;12.308;2023-03-19T06:51:03;8.10;99.90
32660;DHT22;19064;47.912;12.308;2023-03-19T06:53:30;8.10;99.90
32660;DHT22;19064;47.912;12.308;2023-03-19T06:55:56;8.10;99.90
32660;DHT22;19064;47.912;12.308;2023-03-19T06:58:24;8.10;99.90
32660;DHT22;19064;47.912;12.308;2023-03-19T07:00:51;8.20;99.90
32660;DHT22;19064;47.912;12.308;2023-03-19T07:03:18;8.20;99.90
32660;DHT22;19064;47.912;12.308;2023-03-19T07:05:45;8.20;99.90
32660;DHT22;19064;47.912;12.308;2023-03-19T07:08:13;8.30;99.90
32660;DHT22;19064;47.912;12.308;2023-03-19T07:10:39;8.30;99.90
32660;DHT22;19064;47.912;12.308;2023-03-19T07:13:06;8.30;99.90
32660;DHT22;19064;47.912;12.308;2023-03-19T07:15:34;8.40;99.90
32660;DHT22;19064;47.912;12.308;2023-03-19T07:18:01;8.50;99.90
32660;DHT22;19064;47.912;12.308;2023-03-19T07:20:28;8.60;99.90
32660;DHT22;19064;47.912;12.308;2023-03-19T07:22:55;8.70;99.90
32660;DHT22;19064;47.912;12.308;2023-03-19T07:25:22;8.90;99.90
32660;DHT22;19064;47.912;12.308;2023-03-19T07:27:48;9.10;99.90
32660;DHT22;19064;47.912;12.308;2023-03-19T07:30:15;9.30;99.90
32660;DHT22;19064;47.912;12.308;2023-03-19T07:32:43;9.40;99.90
32660;DHT22;19064;47.912;12.308;2023-03-19T07:35:10;9.50;99.90
32660;DHT22;19064;47.912;12.308;2023-03-19T07:37:38;9.60;99.90
32660;DHT22;19064;47.912;12.308;2023-03-19T07:40:06;9.70;99.90
32660;DHT22;19064;47.912;12.308;2023-03-19T07:42:33;9.80;99.90
32660;DHT22;19064;47.912;12.308;2023-03-19T07:45:01;9.80;99.90
32660;DHT22;19064;47.912;12.308;2023-03-19T07:47:28;9.90;99.90
32660;DHT22;19064;47.912;12.308;2023-03-19T07:49:56;9.90;99.90
32660;DHT22;19064;47.912;12.308;2023-03-19T07:52:23;10.00;99.90
32660;DHT22;19064;47.912;12.308;2023-03-19T07:54:51;10.00;99.90
32660;DHT22;19064;47.912;12.308;2023-03-19T07:57:18;10.10;99.90
32660;DHT22;19064;47.912;12.308;2023-03-19T07:59:45;10.10;99.90
32660;DHT22;19064;47.912;12.308;2023-03-19T08:02:12;10.10;99.90
32660;DHT22;19064;47.912;12.308;2023-03-19T08:04:39;10.20;99.90
32660;DHT22;19064;47.912;12.308;2023-03-19T08:07:08;10.20;99.90
32660;DHT22;19064;47.912;12.308;2023-03-19T08:09:37;10.20;99.90
32660;DHT22;19064;47.912;12.308;2023-03-19T08:12:04;10.30;99.90
32660;DHT22;19064;47.912;12.308;2023-03-19T08:14:31;10.40;99.90
32660;DHT22;19064;47.912;12.308;2023-03-19T08:16:58;10.50;99.90
32660;DHT22;19064;47.912;12.308;2023-03-19T08:19:25;10.90;99.90
32660;DHT22;19064;47.912;12.308;2023-03-19T08:21:52;11.20;99.90
32660;DHT22;19064;47.912;12.308;2023-03-19T08:24:20;11.40;99.90
32660;DHT22;19064;47.912;12.308;2023-03-19T08:26:48;11.60;99.90
32660;DHT22;19064;47.912;12.308;2023-03-19T08:29:15;11.80;99.90
32660;DHT22;19064;47.912;12.308;2023-03-19T08:31:42;12.00;99.90
32660;DHT22;19064;47.912;12.308;2023-03-19T08:34:09;12.00;99.90
32660;DHT22;19064;47.912;12.308;2023-03-19T08:36:36;12.10;99.90
32660;DHT22;19064;47.912;12.308;2023-03-19T08:39:03;12.10;99.90
32660;DHT22;19064;47.912;12.308;2023-03-19T08:41:31;12.00;99.90
32660;DHT22;19064;47.912;12.308;2023-03-19T08:43:57;12.00;99.90
32660;DHT22;19064;47.912;12.308;2023-03-19T08:46:26;11.90;99.90
32660;DHT22;19064;47.912;12.308;2023-03-19T08:48:57;11.90;99.90
32660;DHT22;19064;47.912;12.308;2023-03-19T08:51:24;12.10;99.90
32660;DHT22;19064;47.912;12.308;2023-03-19T08:53:53;12.40;99.90
32660;DHT22;19064;47.912;12.308;2023-03-19T08:56:19;12.50;99.90
32660;DHT22;19064;47.912;12.308;2023-03-19T08:58:48;12.70;99.90
32660;DHT22;19064;47.912;12.308;2023-03-19T09:01:14;12.70;99.90
32660;DHT22;19064;47.912;12.308;2023-03-19T09:03:42;12.70;99.90
32660;DHT22;19064;47.912;12.308;2023-03-19T09:06:10;12.50;99.90
32660;DHT22;19064;47.912;12.308;2023-03-19T09:08:38;12.40;99.90
32660;DHT22;19064;47.912;12.308;2023-03-19T09:11:08;12.50;99.90
32660;DHT22;19064;47.912;12.308;2023-03-19T09:13:35;12.50;99.90
32660;DHT22;19064;47.912;12.308;2023-03-19T09:16:04;12.50;99.90
32660;DHT22;19064;47.912;12.308;2023-03-19T09:18:31;12.70;99.90
32660;DHT22;19064;47.912;12.308;2023-03-19T09:20:58;12.90;99.90
32660;DHT22;19064;47.912;12.308;2023-03-19T09:23:25;13.20;99.90
32660;DHT22;19064;47.912;12.308;2023-03-19T09:25:53;13.20;99.90
32660;DHT22;19064;47.912;12.308;2023-03-19T09:28:20;13.20;99.90
32660;DHT22;19064;47.912;12.308;2023-03-19T09:30:47;12.90;99.90
32660;DHT22;19064;47.912;12.308;2023-03-19T09:33:18;12.90;99.90
32660;DHT22;19064;47.912;12.308;2023-03-19T09:35:49;13.00;99.90
32660;DHT22;19064;47.912;12.308;2023-03-19T09:40:46;13.50;99.90
32660;DHT22;19064;47.912;12.308;2023-03-19T09:43:43;13.60;99.90
32660;DHT22;19064;47.912;12.308;2023-03-19T09:46:16;13.70;99.90
32660;DHT22;19064;47.912;12.308;2023-03-19T09:48:51;13.50;99.90
32660;DHT22;19064;47.912;12.308;2023-03-19T09:51:22;13.40;99.90
32660;DHT22;19064;47.912;12.308;2023-03-19T09:53:56;13.20;99.90
32660;DHT22;19064;47.912;12.308;2023-03-19T09:56:25;13.00;99.90
32660;DHT22;19064;47.912;12.308;2023-03-19T09:58:53;12.90;99.90
32660;DHT22;19064;47.912;12.308;2023-03-19T10:01:25;12.90;99.90
32660;DHT22;19064;47.912;12.308;2023-03-19T10:04:16;13.00;99.90
32660;DHT22;19064;47.912;12.308;2023-03-19T10:06:47;12.80;99.90
32660;DHT22;19064;47.912;12.308;2023-03-19T10:09:43;12.70;99.90
32660;DHT22;19064;47.912;12.308;2023-03-19T10:12:24;12.70;99.90
32660;DHT22;19064;47.912;12.308;2023-03-19T10:15:18;12.70;99.90
32660;DHT22;19064;47.912;12.308;2023-03-19T10:17:53;12.50;99.90
32660;DHT22;19064;47.912;12.308;2023-03-19T10:20:37;12.50;99.90
32660;DHT22;19064;47.912;12.308;2023-03-19T10:23:20;12.50;99.90
32660;DHT22;19064;47.912;12.308;2023-03-19T10:25:51;12.50;99.90
32660;DHT22;19064;47.912;12.308;2023-03-19T10:28:20;12.60;99.90
32660;DHT22;19064;47.912;12.308;2023-03-19T10:30:51;12.70;99.90
32660;DHT22;19064;47.912;12.308;2023-03-19T10:33:22;12.80;99.90
32660;DHT22;19064;47.912;12.308;2023-03-19T10:35:56;12.80;99.90
32660;DHT22;19064;47.912;12.308;2023-03-19T10:38:25;12.80;99.90
32660;DHT22;19064;47.912;12.308;2023-03-19T10:41:19;12.80;99.90
32660;DHT22;19064;47.912;12.308;2023-03-19T10:43:52;12.80;99.90
32660;DHT22;19064;47.912;12.308;2023-03-19T10:46:20;12.80;99.90
32660;DHT22;19064;47.912;12.308;2023-03-19T10:48:47;12.70;99.90
32660;DHT22;19064;47.912;12.308;2023-03-19T10:51:17;12.80;99.90
32660;DHT22;19064;47.912;12.308;2023-03-19T10:53:46;12.80;99.90
32660;DHT22;19064;47.912;12.308;2023-03-19T10:56:18;12.90;99.90
32660;DHT22;19064;47.912;12.308;2023-03-19T10:58:57;12.90;99.90
32660;DHT22;19064;47.912;12.308;2023-03-19T11:01:26;12.90;99.90
32660;DHT22;19064;47.912;12.308;2023-03-19T11:03:56;12.70;99.90
32660;DHT22;19064;47.912;12.308;2023-03-19T11:06:26;12.70;99.90
32660;DHT22;19064;47.912;12.308;2023-03-19T11:08:56;12.80;99.90
32660;DHT22;19064;47.912;12.308;2023-03-19T11:11:32;12.70;99.90
32660;DHT22;19064;47.912;12.308;2023-03-19T11:14:14;12.70;99.90
32660;DHT22;19064;47.912;12.308;2023-03-19T11:16:54;12.80;99.90
32660;DHT22;19064;47.912;12.308;2023-03-19T11:19:23;12.90;99.90
32660;DHT22;19064;47.912;12.308;2023-03-19T11:22:11;12.90;99.90
32660;DHT22;19064;47.912;12.308;2023-03-19T11:24:41;13.00;99.90
32660;DHT22;19064;47.912;12.308;2023-03-19T11:27:09;13.10;99.90
32660;DHT22;19064;47.912;12.308;2023-03-19T11:29:39;13.10;99.90
32660;DHT22;19064;47.912;12.308;2023-03-19T11:32:21;13.20;99.90
32660;DHT22;19064;47.912;12.308;2023-03-19T11:34:55;13.20;99.90
32660;DHT22;19064;47.912;12.308;2023-03-19T11:37:32;13.10;99.90
32660;DHT22;19064;47.912;12.308;2023-03-19T11:40:13;13.10;99.90
32660;DHT22;19064;47.912;12.308;2023-03-19T11:42:58;13.10;99.90
32660;DHT22;19064;47.912;12.308;2023-03-19T11:45:34;13.20;99.90
32660;DHT22;19064;47.912;12.308;2023-03-19T11:48:21;13.10;99.90
32660;DHT22;19064;47.912;12.308;2023-03-19T11:50:57;13.10;99.90
32660;DHT22;19064;47.912;12.308;2023-03-19T11:53:33;13.20;99.90
32660;DHT22;19064;47.912;12.308;2023-03-19T11:56:09;13.30;99.90
32660;DHT22;19064;47.912;12.308;2023-03-19T11:59:08;13.40;99.90
32660;DHT22;19064;47.912;12.308;2023-03-19T12:05:14;13.50;99.90
32660;DHT22;19064;47.912;12.308;2023-03-19T12:07:57;13.40;99.90
32660;DHT22;19064;47.912;12.308;2023-03-19T12:10:49;13.40;99.90
32660;DHT22;19064;47.912;12.308;2023-03-19T12:13:30;13.40;99.90
32660;DHT22;19064;47.912;12.308;2023-03-19T12:16:06;13.40;99.90
32660;DHT22;19064;47.912;12.308;2023-03-19T12:18:56;13.40;99.90
32660;DHT22;19064;47.912;12.308;2023-03-19T12:21:31;13.40;99.90
32660;DHT22;19064;47.912;12.308;2023-03-19T12:24:07;13.60;99.90
32660;DHT22;19064;47.912;12.308;2023-03-19T12:26:47;13.60;99.90
32660;DHT22;19064;47.912;12.308;2023-03-19T12:29:22;13.50;99.90
32660;DHT22;19064;47.912;12.308;2023-03-19T12:32:18;13.50;99.90
32660;DHT22;19064;47.912;12.308;2023-03-19T12:34:51;13.60;99.90
32660;DHT22;19064;47.912;12.308;2023-03-19T12:37:25;13.60;99.90
32660;DHT22;19064;47.912;12.308;2023-03-19T12:40:04;13.60;99.90
32660;DHT22;19064;47.912;12.308;2023-03-19T12:42:37;13.60;99.90
32660;DHT22;19064;47.912;12.308;2023-03-19T12:45:16;13.50;99.90
32660;DHT22;19064;47.912;12.308;2023-03-19T12:47:44;13.40;99.90
32660;DHT22;19064;47.912;12.308;2023-03-19T12:50:13;13.30;99.90
32660;DHT22;19064;47.912;12.308;2023-03-19T12:52:43;13.30;99.90
32660;DHT22;19064;47.912;12.308;2023-03-19T12:55:16;13.30;99.90
32660;DHT22;19064;47.912;12.308;2023-03-19T12:57:47;13.30;99.90
32660;DHT22;19064;47.912;12.308;2023-03-19T13:00:20;13.30;99.90
32660;DHT22;19064;47.912;12.308;2023-03-19T13:02:52;13.30;99.90
32660;DHT22;19064;47.912;12.308;2023-03-19T13:05:30;13.30;99.90
32660;DHT22;19064;47.912;12.308;2023-03-19T13:08:04;13.20;99.90
32660;DHT22;19064;47.912;12.308;2023-03-19T13:10:33;13.30;99.90
32660;DHT22;19064;47.912;12.308;2023-03-19T13:13:14;13.30;99.90
32660;DHT22;19064;47.912;12.308;2023-03-19T13:15:47;13.30;99.90
32660;DHT22;19064;47.912;12.308;2023-03-19T13:18:29;13.40;99.90
32660;DHT22;19064;47.912;12.308;2023-03-19T13:21:08;13.40;99.90
32660;DHT22;19064;47.912;12.308;2023-03-19T13:23:39;13.40;99.90
32660;DHT22;19064;47.912;12.308;2023-03-19T13:26:09;13.40;99.90
32660;DHT22;19064;47.912;12.308;2023-03-19T13:28:53;13.40;99.90
32660;DHT22;19064;47.912;12.308;2023-03-19T13:31:24;13.40;99.90
32660;DHT22;19064;47.912;12.308;2023-03-19T13:33:58;13.40;99.90
32660;DHT22;19064;47.912;12.308;2023-03-19T13:36:26;13.40;99.90
32660;DHT22;19064;47.912;12.308;2023-03-19T13:38:55;13.40;99.90
32660;DHT22;19064;47.912;12.308;2023-03-19T13:44:35;13.50;99.90
32660;DHT22;19064;47.912;12.308;2023-03-19T13:47:38;13.50;99.90
32660;DHT22;19064;47.912;12.308;2023-03-19T13:50:22;13.50;99.90
32660;DHT22;19064;47.912;12.308;2023-03-19T13:52:50;13.50;99.90
32660;DHT22;19064;47.912;12.308;2023-03-19T13:55:29;13.50;99.90
32660;DHT22;19064;47.912;12.308;2023-03-19T13:58:04;13.50;99.90
32660;DHT22;19064;47.912;12.308;2023-03-19T14:00:57;13.50;99.90
32660;DHT22;19064;47.912;12.308;2023-03-19T14:03:25;13.50;99.90
32660;DHT22;19064;47.912;12.308;2023-03-19T14:05:55;13.50;99.90
32660;DHT22;19064;47.912;12.308;2023-03-19T14:08:23;13.40;99.90
32660;DHT22;19064;47.912;12.308;2023-03-19T14:10:52;13.50;99.90
32660;DHT22;19064;47.912;12.308;2023-03-19T14:13:27;13.40;99.90
32660;DHT22;19064;47.912;12.308;2023-03-19T14:16:08;13.30;99.90
32660;DHT22;19064;47.912;12.308;2023-03-19T14:18:40;13.30;99.90
32660;DHT22;19064;47.912;12.308;2023-03-19T14:21:09;13.30;99.90
32660;DHT22;19064;47.912;12.308;2023-03-19T14:23:39;13.30;99.90
32660;DHT22;19064;47.912;12.308;2023-03-19T14:26:15;13.40;99.90
32660;DHT22;19064;47.912;12.308;2023-03-19T14:28:56;13.40;99.90
32660;DHT22;19064;47.912;12.308;2023-03-19T14:31:40;13.40;99.90
32660;DHT22;19064;47.912;12.308;2023-03-19T14:34:18;13.40;99.90
32660;DHT22;19064;47.912;12.308;2023-03-19T14:36:49;13.30;99.90
32660;DHT22;19064;47.912;12.308;2023-03-19T14:39:20;13.30;99.90
32660;DHT22;19064;47.912;12.308;2023-03-19T14:41:50;13.30;99.90
32660;DHT22;19064;47.912;12.308;2023-03-19T14:44:37;13.30;99.90
32660;DHT22;19064;47.912;12.308;2023-03-19T14:47:24;13.30;99.90
32660;DHT22;19064;47.912;12.308;2023-03-19T14:50:02;13.40;99.90
32660;DHT22;19064;47.912;12.308;2023-03-19T14:52:40;13.50;99.90
32660;DHT22;19064;47.912;12.308;2023-03-19T14:55:12;13.50;99.90
32660;DHT22;19064;47.912;12.308;2023-03-19T14:57:39;13.50;99.90
32660;DHT22;19064;47.912;12.308;2023-03-19T15:00:13;13.50;99.90
32660;DHT22;19064;47.912;12.308;2023-03-19T15:02:45;13.50;99.90
32660;DHT22;19064;47.912;12.308;2023-03-19T15:05:17;13.50;99.90
32660;DHT22;19064;47.912;12.308;2023-03-19T15:07:49;13.60;99.90
32660;DHT22;19064;47.912;12.308;2023-03-19T15:10:19;13.60;99.90
32660;DHT22;19064;47.912;12.308;2023-03-19T15:13:08;13.70;99.90
32660;DHT22;19064;47.912;12.308;2023-03-19T15:15:50;13.70;99.90
32660;DHT22;19064;47.912;12.308;2023-03-19T15:18:24;13.80;99.90
32660;DHT22;19064;47.912;12.308;2023-03-19T15:20:52;13.80;99.90
32660;DHT22;19064;47.912;12.308;2023-03-19T15:23:23;13.80;99.90
32660;DHT22;19064;47.912;12.308;2023-03-19T15:25:53;13.80;99.90
32660;DHT22;19064;47.912;12.308;2023-03-19T15:28:24;13.80;99.90
32660;DHT22;19064;47.912;12.308;2023-03-19T15:30:58;13.80;99.90
32660;DHT22;19064;47.912;12.308;2023-03-19T15:33:33;13.80;99.90
32660;DHT22;19064;47.912;12.308;2023-03-19T15:36:05;13.80;99.90
32660;DHT22;19064;47.912;12.308;2023-03-19T15:38:36;13.70;99.90
32660;DHT22;19064;47.912;12.308;2023-03-19T15:41:09;13.60;99.90
32660;DHT22;19064;47.912;12.308;2023-03-19T15:43:38;13.60;99.90
32660;DHT22;19064;47.912;12.308;2023-03-19T15:46:06;13.60;99.90
32660;DHT22;19064;47.912;12.308;2023-03-19T15:48:41;13.50;99.90
32660;DHT22;19064;47.912;12.308;2023-03-19T15:51:10;13.30;99.90
32660;DHT22;19064;47.912;12.308;2023-03-19T15:53:38;13.20;99.90